Aeroporto :







RITROVATECI SU...

 
LOGIN :

Iscrizione | Disclaimer

   EN    FR    IT 

 









Sommario :    VFR   VFR Marginale   IFR   IFR Intensivo   IFR Molto Intensivo
Visibilità : 
Base nubi : 
>= 8 km
>= 3000ft
5 / 8 km
1000 / 3000 ft
1500m / 5 km
500 / 1000 ft
800 / 1500m
200 / 500 ft
< 800m
< 200 ft
Simboli :   Temporali  Nebbia  Neve Forte  Precipitazioni Forti  Vento > 20 kt






- Altitudine del aeroporto : 198 ft
- Codice IATA : STM


SBSN - Maestro Wilson Fonseca Int.

ULTIMO METAR :
  • 020300Z 09006KT 9999 FEW015 SCT100 26/24 Q1014

METARs OBSOLETI :
  • 020200Z 10003KT 9999 FEW015 SCT100 25/24 Q1014
  • 020100Z 09006KT 9999 SCT010 BKN100 25/23 Q1014

TAF TAF SBSN
Valido dal 02 a 00 ore il 03 a 00 ore UTC


012100Z 0200/0224 12007KT 9999 SCT017 TN25/0206Z TX30/0217Z
PROB30
TEMPO 0204/0206 7000 TS FEW015 FEW025CB
BECMG 0206/0208 SCT012
BECMG 0213/0215 SCT017
BECMG 0216/0218 SCT017 FEW025TCU RMK PDU
FIR SBAZ / Sudamerica



MetMap, La meteo Aeronautica in un colpo d'occhio ! - Copyright ORBIFLY Dicembre 2007 - Disclaimer

ORBIFLY MET'MAP TEAM :

Programmazione e sviluppo : Alexandra Zaïnal
Concezione : Baudouin d'Aumeries
Aiuto per la programmazione : Marc-Olivier Méhu
Supporto tecnico e logistico : Manuel Goepfert
Aiuto per la traduzione : Arnaldo La Scala

Contatto : metmap@orbifly.com




FONTI E CREDITI :

   NOAA